sensor_id;sensor_type;location;lat;lon;timestamp;pressure;altitude;pressure_sealevel;temperature;humidity
69848;BME280;57143;55.940;37.496;2023-07-31T00:00:41;98532.19;;;15.69;100.00
69848;BME280;57143;55.940;37.496;2023-07-31T00:03:08;98562.44;;;15.88;100.00
69848;BME280;57143;55.940;37.496;2023-07-31T00:05:36;98562.19;;;15.84;100.00
69848;BME280;57143;55.940;37.496;2023-07-31T00:08:03;98562.75;;;15.81;100.00
69848;BME280;57143;55.940;37.496;2023-07-31T00:10:32;98556.75;;;15.79;100.00
69848;BME280;57143;55.940;37.496;2023-07-31T00:12:59;98521.84;;;15.61;100.00
69848;BME280;57143;55.940;37.496;2023-07-31T00:15:27;98537.38;;;15.71;100.00
69848;BME280;57143;55.940;37.496;2023-07-31T00:17:54;98540.66;;;15.68;100.00
69848;BME280;57143;55.940;37.496;2023-07-31T00:20:21;98541.22;;;15.70;100.00
69848;BME280;57143;55.940;37.496;2023-07-31T00:22:48;98527.59;;;15.60;100.00
69848;BME280;57143;55.940;37.496;2023-07-31T00:25:16;98492.41;;;15.43;100.00
69848;BME280;57143;55.940;37.496;2023-07-31T00:27:44;98527.03;;;15.63;100.00
69848;BME280;57143;55.940;37.496;2023-07-31T00:30:12;98530.31;;;15.65;100.00
69848;BME280;57143;55.940;37.496;2023-07-31T00:32:39;98527.56;;;15.65;100.00
69848;BME280;57143;55.940;37.496;2023-07-31T00:35:06;98528.38;;;15.65;100.00
69848;BME280;57143;55.940;37.496;2023-07-31T00:37:34;98524.31;;;15.63;100.00
69848;BME280;57143;55.940;37.496;2023-07-31T00:40:01;98524.03;;;15.59;100.00
69848;BME280;57143;55.940;37.496;2023-07-31T00:42:29;98500.59;;;15.43;100.00
69848;BME280;57143;55.940;37.496;2023-07-31T00:44:58;98507.44;;;15.46;100.00
69848;BME280;57143;55.940;37.496;2023-07-31T00:47:25;98514.50;;;15.47;100.00
69848;BME280;57143;55.940;37.496;2023-07-31T00:49:52;98503.88;;;15.40;100.00
69848;BME280;57143;55.940;37.496;2023-07-31T00:52:20;98503.88;;;15.35;100.00
69848;BME280;57143;55.940;37.496;2023-07-31T00:54:50;98493.25;;;15.29;100.00
69848;BME280;57143;55.940;37.496;2023-07-31T00:57:17;98487.53;;;15.25;100.00
69848;BME280;57143;55.940;37.496;2023-07-31T00:59:45;98479.09;;;15.17;100.00
69848;BME280;57143;55.940;37.496;2023-07-31T01:02:14;98495.97;;;15.29;100.00
69848;BME280;57143;55.940;37.496;2023-07-31T01:04:42;98484.78;;;15.25;100.00
69848;BME280;57143;55.940;37.496;2023-07-31T01:07:14;98488.88;;;15.28;100.00
69848;BME280;57143;55.940;37.496;2023-07-31T01:09:52;98493.78;;;15.26;100.00
69848;BME280;57143;55.940;37.496;2023-07-31T01:12:27;98473.06;;;15.20;100.00
69848;BME280;57143;55.940;37.496;2023-07-31T01:15:03;98481.25;;;15.25;100.00
69848;BME280;57143;55.940;37.496;2023-07-31T01:17:34;98481.81;;;15.22;100.00
69848;BME280;57143;55.940;37.496;2023-07-31T01:20:04;98479.38;;;15.15;100.00
69848;BME280;57143;55.940;37.496;2023-07-31T01:22:44;98468.19;;;15.12;100.00
69848;BME280;57143;55.940;37.496;2023-07-31T01:25:27;98475.53;;;15.11;100.00
69848;BME280;57143;55.940;37.496;2023-07-31T01:28:05;98474.16;;;15.14;100.00
69848;BME280;57143;55.940;37.496;2023-07-31T01:30:37;98465.44;;;15.12;100.00
69848;BME280;57143;55.940;37.496;2023-07-31T01:33:06;98475.25;;;15.18;100.00
69848;BME280;57143;55.940;37.496;2023-07-31T01:35:35;98465.72;;;15.15;100.00
69848;BME280;57143;55.940;37.496;2023-07-31T01:38:04;98456.44;;;15.06;100.00
69848;BME280;57143;55.940;37.496;2023-07-31T01:40:31;98469.25;;;15.16;100.00
69848;BME280;57143;55.940;37.496;2023-07-31T01:42:59;98469.25;;;15.16;100.00
69848;BME280;57143;55.940;37.496;2023-07-31T01:45:27;98470.34;;;15.15;100.00
69848;BME280;57143;55.940;37.496;2023-07-31T01:47:55;98458.03;;;15.17;100.00
69848;BME280;57143;55.940;37.496;2023-07-31T01:50:22;98460.50;;;15.19;100.00
69848;BME280;57143;55.940;37.496;2023-07-31T01:52:49;98470.31;;;15.25;100.00
69848;BME280;57143;55.940;37.496;2023-07-31T01:55:16;98458.28;;;15.26;100.00
69848;BME280;57143;55.940;37.496;2023-07-31T01:57:43;98473.56;;;15.32;100.00
69848;BME280;57143;55.940;37.496;2023-07-31T02:00:11;98471.09;;;15.35;100.00
69848;BME280;57143;55.940;37.496;2023-07-31T02:02:40;98459.66;;;15.28;100.00
69848;BME280;57143;55.940;37.496;2023-07-31T02:05:08;98486.66;;;15.45;100.00
69848;BME280;57143;55.940;37.496;2023-07-31T02:07:35;98456.91;;;15.38;100.00
69848;BME280;57143;55.940;37.496;2023-07-31T02:10:03;98485.66;;;16.33;100.00
69848;BME280;57143;55.940;37.496;2023-07-31T02:12:33;98485.59;;;17.10;100.00
69848;BME280;57143;55.940;37.496;2023-07-31T02:15:01;98528.38;;;17.82;100.00
69848;BME280;57143;55.940;37.496;2023-07-31T02:17:33;98569.44;;;18.53;100.00
69848;BME280;57143;55.940;37.496;2023-07-31T02:20:02;98618.84;;;18.90;100.00
69848;BME280;57143;55.940;37.496;2023-07-31T02:22:33;98661.38;;;19.30;100.00
69848;BME280;57143;55.940;37.496;2023-07-31T02:25:00;98692.03;;;19.69;100.00
69848;BME280;57143;55.940;37.496;2023-07-31T02:27:30;98677.53;;;19.82;100.00
69848;BME280;57143;55.940;37.496;2023-07-31T02:29:58;98785.13;;;20.58;100.00
69848;BME280;57143;55.940;37.496;2023-07-31T02:32:25;98804.00;;;20.79;100.00
69848;BME280;57143;55.940;37.496;2023-07-31T02:34:53;98824.41;;;20.78;100.00
69848;BME280;57143;55.940;37.496;2023-07-31T02:37:21;98860.84;;;21.42;100.00
69848;BME280;57143;55.940;37.496;2023-07-31T02:39:49;98892.78;;;21.70;100.00
69848;BME280;57143;55.940;37.496;2023-07-31T02:42:16;98914.03;;;21.84;100.00
69848;BME280;57143;55.940;37.496;2023-07-31T02:44:43;98935.66;;;22.39;100.00
69848;BME280;57143;55.940;37.496;2023-07-31T02:47:10;98943.44;;;22.37;100.00
69848;BME280;57143;55.940;37.496;2023-07-31T02:49:37;98935.66;;;22.39;100.00
69848;BME280;57143;55.940;37.496;2023-07-31T02:52:05;98982.09;;;22.95;100.00
69848;BME280;57143;55.940;37.496;2023-07-31T02:54:34;99009.19;;;23.15;100.00
69848;BME280;57143;55.940;37.496;2023-07-31T02:57:01;99021.81;;;23.52;100.00
69848;BME280;57143;55.940;37.496;2023-07-31T02:59:28;99038.25;;;23.96;100.00
69848;BME280;57143;55.940;37.496;2023-07-31T03:01:56;99062.31;;;23.87;100.00
69848;BME280;57143;55.940;37.496;2023-07-31T03:04:23;99064.28;;;24.34;100.00
69848;BME280;57143;55.940;37.496;2023-07-31T03:06:50;99091.13;;;24.73;100.00
69848;BME280;57143;55.940;37.496;2023-07-31T03:09:17;99122.59;;;25.11;100.00
69848;BME280;57143;55.940;37.496;2023-07-31T03:11:46;99115.59;;;24.96;100.00
69848;BME280;57143;55.940;37.496;2023-07-31T03:14:14;99136.78;;;25.35;100.00
69848;BME280;57143;55.940;37.496;2023-07-31T03:16:41;99129.13;;;25.32;100.00
69848;BME280;57143;55.940;37.496;2023-07-31T03:19:08;99162.09;;;25.76;100.00
69848;BME280;57143;55.940;37.496;2023-07-31T03:21:35;99165.66;;;25.77;100.00
69848;BME280;57143;55.940;37.496;2023-07-31T03:24:03;99184.38;;;26.14;100.00
69848;BME280;57143;55.940;37.496;2023-07-31T03:26:31;99130.81;;;25.96;100.00
69848;BME280;57143;55.940;37.496;2023-07-31T03:29:00;99176.97;;;26.27;100.00
69848;BME280;57143;55.940;37.496;2023-07-31T03:31:27;99186.03;;;26.82;100.00
69848;BME280;57143;55.940;37.496;2023-07-31T03:33:54;99190.97;;;27.05;100.00
69848;BME280;57143;55.940;37.496;2023-07-31T03:36:21;99182.63;;;27.05;100.00
69848;BME280;57143;55.940;37.496;2023-07-31T03:38:48;99197.78;;;26.87;100.00
69848;BME280;57143;55.940;37.496;2023-07-31T03:41:15;99189.94;;;26.89;100.00
69848;BME280;57143;55.940;37.496;2023-07-31T03:43:42;99178.13;;;26.92;100.00
69848;BME280;57143;55.940;37.496;2023-07-31T03:46:11;99182.78;;;27.09;100.00
69848;BME280;57143;55.940;37.496;2023-07-31T03:48:38;99151.59;;;26.95;100.00
69848;BME280;57143;55.940;37.496;2023-07-31T03:51:05;99155.94;;;27.34;100.00
69848;BME280;57143;55.940;37.496;2023-07-31T03:53:32;99148.16;;;27.39;100.00
69848;BME280;57143;55.940;37.496;2023-07-31T03:56:00;99121.88;;;27.28;100.00
69848;BME280;57143;55.940;37.496;2023-07-31T03:58:27;99129.09;;;27.29;100.00
69848;BME280;57143;55.940;37.496;2023-07-31T04:00:54;99141.06;;;27.62;100.00
69848;BME280;57143;55.940;37.496;2023-07-31T04:03:23;99124.72;;;28.05;100.00
69848;BME280;57143;55.940;37.496;2023-07-31T04:05:50;99112.00;;;27.84;100.00
69848;BME280;57143;55.940;37.496;2023-07-31T04:08:17;99094.47;;;27.83;100.00
69848;BME280;57143;55.940;37.496;2023-07-31T04:10:44;99067.16;;;28.58;100.00
69848;BME280;57143;55.940;37.496;2023-07-31T04:13:13;99028.78;;;28.55;100.00
69848;BME280;57143;55.940;37.496;2023-07-31T04:15:40;99031.34;;;28.23;100.00
69848;BME280;57143;55.940;37.496;2023-07-31T04:18:07;98996.50;;;28.41;100.00
69848;BME280;57143;55.940;37.496;2023-07-31T04:20:35;98984.28;;;28.34;100.00
69848;BME280;57143;55.940;37.496;2023-07-31T04:23:03;98986.84;;;28.39;100.00
69848;BME280;57143;55.940;37.496;2023-07-31T04:25:30;98977.88;;;28.70;100.00
69848;BME280;57143;55.940;37.496;2023-07-31T04:27:57;98964.16;;;28.65;100.00
69848;BME280;57143;55.940;37.496;2023-07-31T04:30:25;98951.41;;;28.52;100.00
69848;BME280;57143;55.940;37.496;2023-07-31T04:32:52;98933.72;;;28.87;100.00
69848;BME280;57143;55.940;37.496;2023-07-31T04:35:19;98936.84;;;28.86;100.00
69848;BME280;57143;55.940;37.496;2023-07-31T04:37:48;98919.66;;;28.68;100.00
69848;BME280;57143;55.940;37.496;2023-07-31T04:40:15;98924.38;;;29.23;100.00
69848;BME280;57143;55.940;37.496;2023-07-31T04:42:43;98887.13;;;29.03;100.00
69848;BME280;57143;55.940;37.496;2023-07-31T04:45:10;98851.84;;;29.42;100.00
69848;BME280;57143;55.940;37.496;2023-07-31T04:47:37;98822.28;;;29.57;100.00
69848;BME280;57143;55.940;37.496;2023-07-31T04:50:05;98775.00;;;29.48;100.00
69848;BME280;57143;55.940;37.496;2023-07-31T04:52:33;98773.09;;;29.52;100.00
69848;BME280;57143;55.940;37.496;2023-07-31T04:55:01;98765.16;;;29.54;100.00
69848;BME280;57143;55.940;37.496;2023-07-31T04:57:31;98749.59;;;29.37;100.00
69848;BME280;57143;55.940;37.496;2023-07-31T04:59:58;98719.38;;;29.59;100.00
69848;BME280;57143;55.940;37.496;2023-07-31T05:02:26;98709.34;;;29.92;100.00
69848;BME280;57143;55.940;37.496;2023-07-31T05:04:53;98719.41;;;29.97;100.00
69848;BME280;57143;55.940;37.496;2023-07-31T05:07:23;98726.75;;;30.05;100.00
69848;BME280;57143;55.940;37.496;2023-07-31T05:09:50;98727.19;;;30.26;100.00
69848;BME280;57143;55.940;37.496;2023-07-31T05:12:19;98732.88;;;30.29;100.00
69848;BME280;57143;55.940;37.496;2023-07-31T05:14:46;98727.41;;;30.36;100.00
69848;BME280;57143;55.940;37.496;2023-07-31T05:17:13;98741.53;;;30.66;100.00
69848;BME280;57143;55.940;37.496;2023-07-31T05:19:40;98736.91;;;30.77;100.00
69848;BME280;57143;55.940;37.496;2023-07-31T05:22:08;98726.28;;;30.63;100.00
69848;BME280;57143;55.940;37.496;2023-07-31T05:24:35;98695.53;;;31.12;100.00
69848;BME280;57143;55.940;37.496;2023-07-31T05:27:02;98707.22;;;30.69;100.00
69848;BME280;57143;55.940;37.496;2023-07-31T05:29:31;98675.34;;;31.00;100.00
69848;BME280;57143;55.940;37.496;2023-07-31T05:31:58;98674.09;;;30.48;100.00
69848;BME280;57143;55.940;37.496;2023-07-31T05:34:25;98656.03;;;30.69;100.00
69848;BME280;57143;55.940;37.496;2023-07-31T05:36:53;98607.94;;;31.12;100.00
69848;BME280;57143;55.940;37.496;2023-07-31T05:39:20;98586.59;;;31.00;100.00
69848;BME280;57143;55.940;37.496;2023-07-31T05:41:47;98557.13;;;31.10;100.00
69848;BME280;57143;55.940;37.496;2023-07-31T05:44:14;98547.72;;;31.25;100.00
69848;BME280;57143;55.940;37.496;2023-07-31T05:46:43;98549.75;;;30.72;100.00
69848;BME280;57143;55.940;37.496;2023-07-31T05:49:10;98533.19;;;30.60;100.00
69848;BME280;57143;55.940;37.496;2023-07-31T05:51:37;98519.94;;;30.80;100.00
69848;BME280;57143;55.940;37.496;2023-07-31T05:54:04;98507.81;;;31.02;100.00
69848;BME280;57143;55.940;37.496;2023-07-31T05:56:32;98495.94;;;31.12;100.00
69848;BME280;57143;55.940;37.496;2023-07-31T05:58:59;98479.84;;;31.35;100.00
69848;BME280;57143;55.940;37.496;2023-07-31T06:01:27;98466.81;;;31.16;100.00
69848;BME280;57143;55.940;37.496;2023-07-31T06:03:55;98457.78;;;30.97;100.00
69848;BME280;57143;55.940;37.496;2023-07-31T06:06:22;98434.31;;;31.45;100.00
69848;BME280;57143;55.940;37.496;2023-07-31T06:08:50;98411.97;;;31.52;100.00
69848;BME280;57143;55.940;37.496;2023-07-31T06:11:17;98393.41;;;31.84;100.00
69848;BME280;57143;55.940;37.496;2023-07-31T06:13:44;98400.34;;;31.50;100.00
69848;BME280;57143;55.940;37.496;2023-07-31T06:16:13;98390.09;;;31.24;100.00
69848;BME280;57143;55.940;37.496;2023-07-31T06:18:41;98406.34;;;31.12;100.00
69848;BME280;57143;55.940;37.496;2023-07-31T06:21:10;98404.16;;;31.31;100.00
69848;BME280;57143;55.940;37.496;2023-07-31T06:23:37;98426.44;;;30.84;100.00
69848;BME280;57143;55.940;37.496;2023-07-31T06:26:04;98420.22;;;31.01;100.00
69848;BME280;57143;55.940;37.496;2023-07-31T06:28:32;98419.34;;;30.64;100.00
69848;BME280;57143;55.940;37.496;2023-07-31T06:30:59;98416.13;;;30.32;100.00
69848;BME280;57143;55.940;37.496;2023-07-31T06:33:27;98392.63;;;30.67;100.00
69848;BME280;57143;55.940;37.496;2023-07-31T06:35:54;98388.91;;;30.89;100.00
69848;BME280;57143;55.940;37.496;2023-07-31T06:38:25;98357.84;;;31.01;100.00
69848;BME280;57143;55.940;37.496;2023-07-31T06:40:52;98355.59;;;31.17;100.00
69848;BME280;57143;55.940;37.496;2023-07-31T06:43:19;98347.16;;;31.10;100.00
69848;BME280;57143;55.940;37.496;2023-07-31T06:45:47;98354.09;;;30.86;100.00
69848;BME280;57143;55.940;37.496;2023-07-31T06:48:17;98336.44;;;31.22;100.00
69848;BME280;57143;55.940;37.496;2023-07-31T06:50:44;98328.75;;;31.52;100.00
69848;BME280;57143;55.940;37.496;2023-07-31T06:53:11;98348.66;;;31.00;100.00
69848;BME280;57143;55.940;37.496;2023-07-31T06:55:40;98332.38;;;31.56;100.00
69848;BME280;57143;55.940;37.496;2023-07-31T06:58:07;98335.72;;;31.29;100.00
69848;BME280;57143;55.940;37.496;2023-07-31T07:00:34;98335.13;;;31.49;100.00
69848;BME280;57143;55.940;37.496;2023-07-31T07:03:01;98332.63;;;31.37;100.00
69848;BME280;57143;55.940;37.496;2023-07-31T07:05:28;98311.47;;;31.43;100.00
69848;BME280;57143;55.940;37.496;2023-07-31T07:07:56;98298.75;;;31.53;100.00
69848;BME280;57143;55.940;37.496;2023-07-31T07:10:23;98300.88;;;31.23;100.00
69848;BME280;57143;55.940;37.496;2023-07-31T07:12:52;98297.22;;;31.19;100.00
69848;BME280;57143;55.940;37.496;2023-07-31T07:15:20;98273.53;;;31.56;100.00
69848;BME280;57143;55.940;37.496;2023-07-31T07:17:47;98291.22;;;31.67;100.00
69848;BME280;57143;55.940;37.496;2023-07-31T07:20:15;98289.06;;;32.01;100.00
69848;BME280;57143;55.940;37.496;2023-07-31T07:22:42;98276.84;;;31.73;100.00
69848;BME280;57143;55.940;37.496;2023-07-31T07:25:09;98285.03;;;31.37;100.00
69848;BME280;57143;55.940;37.496;2023-07-31T07:27:36;98295.03;;;31.38;100.00
69848;BME280;57143;55.940;37.496;2023-07-31T07:30:06;98293.97;;;31.13;100.00
69848;BME280;57143;55.940;37.496;2023-07-31T07:32:34;98283.09;;;31.48;100.00
69848;BME280;57143;55.940;37.496;2023-07-31T07:35:01;98287.94;;;31.55;100.00
69848;BME280;57143;55.940;37.496;2023-07-31T07:37:30;98256.84;;;31.78;100.00
69848;BME280;57143;55.940;37.496;2023-07-31T07:39:57;98280.38;;;31.15;100.00
69848;BME280;57143;55.940;37.496;2023-07-31T07:42:24;98279.38;;;30.90;100.00
69848;BME280;57143;55.940;37.496;2023-07-31T07:44:52;98290.34;;;31.09;100.00
69848;BME280;57143;55.940;37.496;2023-07-31T07:47:20;98285.31;;;31.25;100.00
69848;BME280;57143;55.940;37.496;2023-07-31T07:49:47;98288.66;;;31.45;100.00
69848;BME280;57143;55.940;37.496;2023-07-31T07:52:15;98271.50;;;31.53;100.00
69848;BME280;57143;55.940;37.496;2023-07-31T07:54:42;98275.16;;;31.57;100.00
69848;BME280;57143;55.940;37.496;2023-07-31T07:57:09;98300.63;;;30.98;100.00
69848;BME280;57143;55.940;37.496;2023-07-31T07:59:36;98298.81;;;31.16;100.00
69848;BME280;57143;55.940;37.496;2023-07-31T08:02:03;98275.41;;;31.38;100.00
69848;BME280;57143;55.940;37.496;2023-07-31T08:04:32;98287.06;;;31.00;100.00
69848;BME280;57143;55.940;37.496;2023-07-31T08:06:59;98284.59;;;30.92;100.00
69848;BME280;57143;55.940;37.496;2023-07-31T08:09:26;98280.19;;;31.34;100.00
69848;BME280;57143;55.940;37.496;2023-07-31T08:11:53;98289.50;;;31.49;100.00
69848;BME280;57143;55.940;37.496;2023-07-31T08:14:23;98326.09;;;31.26;100.00
69848;BME280;57143;55.940;37.496;2023-07-31T08:16:50;98313.09;;;31.48;100.00
69848;BME280;57143;55.940;37.496;2023-07-31T08:19:18;98289.94;;;31.07;100.00
69848;BME280;57143;55.940;37.496;2023-07-31T08:21:46;98293.94;;;31.06;100.00
69848;BME280;57143;55.940;37.496;2023-07-31T08:24:14;98322.31;;;31.08;100.00
69848;BME280;57143;55.940;37.496;2023-07-31T08:26:41;98303.69;;;31.26;100.00
69848;BME280;57143;55.940;37.496;2023-07-31T08:29:09;98307.47;;;31.01;100.00
69848;BME280;57143;55.940;37.496;2023-07-31T08:31:36;98299.25;;;31.18;100.00
69848;BME280;57143;55.940;37.496;2023-07-31T08:34:03;98305.66;;;31.22;100.00
69848;BME280;57143;55.940;37.496;2023-07-31T08:36:30;98300.09;;;31.26;100.00
69848;BME280;57143;55.940;37.496;2023-07-31T08:38:59;98297.44;;;31.00;100.00
69848;BME280;57143;55.940;37.496;2023-07-31T08:41:27;98306.75;;;31.11;100.00
69848;BME280;57143;55.940;37.496;2023-07-31T08:43:55;98335.31;;;30.87;100.00
69848;BME280;57143;55.940;37.496;2023-07-31T08:46:24;98341.75;;;30.57;100.00
69848;BME280;57143;55.940;37.496;2023-07-31T08:48:52;98344.81;;;30.79;100.00
69848;BME280;57143;55.940;37.496;2023-07-31T08:51:20;98308.97;;;30.54;100.00
69848;BME280;57143;55.940;37.496;2023-07-31T08:53:47;98310.19;;;30.57;100.00
69848;BME280;57143;55.940;37.496;2023-07-31T08:56:16;98343.59;;;30.17;100.00
69848;BME280;57143;55.940;37.496;2023-07-31T08:58:44;98366.84;;;29.46;100.00
69848;BME280;57143;55.940;37.496;2023-07-31T09:01:13;98360.78;;;29.18;100.00
69848;BME280;57143;55.940;37.496;2023-07-31T09:03:42;98360.28;;;28.93;100.00
69848;BME280;57143;55.940;37.496;2023-07-31T09:06:11;98343.69;;;29.00;100.00
69848;BME280;57143;55.940;37.496;2023-07-31T09:08:41;98308.56;;;28.99;100.00
69848;BME280;57143;55.940;37.496;2023-07-31T09:11:09;98344.78;;;28.73;100.00
69848;BME280;57143;55.940;37.496;2023-07-31T09:13:40;98328.50;;;28.37;100.00
69848;BME280;57143;55.940;37.496;2023-07-31T09:16:08;98306.81;;;28.50;100.00
69848;BME280;57143;55.940;37.496;2023-07-31T09:18:53;98292.03;;;28.46;100.00
69848;BME280;57143;55.940;37.496;2023-07-31T09:21:20;98291.22;;;27.72;100.00
69848;BME280;57143;55.940;37.496;2023-07-31T09:23:48;98271.56;;;28.19;100.00
69848;BME280;57143;55.940;37.496;2023-07-31T09:26:29;98236.91;;;27.97;100.00
69848;BME280;57143;55.940;37.496;2023-07-31T09:28:58;98225.78;;;28.20;100.00
69848;BME280;57143;55.940;37.496;2023-07-31T09:31:33;98215.47;;;28.20;100.00
69848;BME280;57143;55.940;37.496;2023-07-31T09:34:00;98245.47;;;28.50;100.00
69848;BME280;57143;55.940;37.496;2023-07-31T09:36:29;98233.81;;;28.02;100.00
69848;BME280;57143;55.940;37.496;2023-07-31T09:39:01;98216.34;;;27.67;100.00
69848;BME280;57143;55.940;37.496;2023-07-31T09:41:29;98248.84;;;27.98;100.00
69848;BME280;57143;55.940;37.496;2023-07-31T09:43:57;98260.72;;;28.52;100.00
69848;BME280;57143;55.940;37.496;2023-07-31T09:46:27;98246.06;;;27.98;100.00
69848;BME280;57143;55.940;37.496;2023-07-31T09:49:06;98188.41;;;27.64;100.00
69848;BME280;57143;55.940;37.496;2023-07-31T09:51:35;98254.63;;;28.27;100.00
69848;BME280;57143;55.940;37.496;2023-07-31T09:54:11;98268.13;;;28.25;100.00
69848;BME280;57143;55.940;37.496;2023-07-31T09:56:43;98257.28;;;28.01;100.00
69848;BME280;57143;55.940;37.496;2023-07-31T09:59:13;98243.66;;;27.62;100.00
69848;BME280;57143;55.940;37.496;2023-07-31T10:01:42;98256.78;;;27.80;100.00
69848;BME280;57143;55.940;37.496;2023-07-31T10:04:10;98205.63;;;27.50;100.00
69848;BME280;57143;55.940;37.496;2023-07-31T10:06:39;98215.50;;;27.48;100.00
69848;BME280;57143;55.940;37.496;2023-07-31T10:09:08;98259.94;;;27.44;100.00
69848;BME280;57143;55.940;37.496;2023-07-31T10:11:38;98267.22;;;27.49;100.00
69848;BME280;57143;55.940;37.496;2023-07-31T10:14:12;98247.78;;;27.87;100.00
69848;BME280;57143;55.940;37.496;2023-07-31T10:16:40;98257.75;;;27.88;100.00
69848;BME280;57143;55.940;37.496;2023-07-31T10:19:09;98255.03;;;27.72;100.00
69848;BME280;57143;55.940;37.496;2023-07-31T10:21:37;98246.22;;;27.20;100.00
69848;BME280;57143;55.940;37.496;2023-07-31T10:24:05;98261.50;;;27.26;100.00
69848;BME280;57143;55.940;37.496;2023-07-31T10:26:33;98224.06;;;27.23;100.00
69848;BME280;57143;55.940;37.496;2023-07-31T10:29:03;98238.50;;;27.45;100.00
69848;BME280;57143;55.940;37.496;2023-07-31T10:31:32;98272.38;;;27.66;100.00
69848;BME280;57143;55.940;37.496;2023-07-31T10:34:01;98284.44;;;27.70;100.00
69848;BME280;57143;55.940;37.496;2023-07-31T10:36:29;98291.00;;;27.96;100.00
69848;BME280;57143;55.940;37.496;2023-07-31T10:38:56;98277.47;;;27.79;100.00
69848;BME280;57143;55.940;37.496;2023-07-31T10:41:28;98287.09;;;27.47;100.00
69848;BME280;57143;55.940;37.496;2023-07-31T10:44:00;98272.75;;;27.29;100.00
69848;BME280;57143;55.940;37.496;2023-07-31T10:46:28;98223.88;;;27.16;100.00
69848;BME280;57143;55.940;37.496;2023-07-31T10:49:01;98208.13;;;27.05;100.00
69848;BME280;57143;55.940;37.496;2023-07-31T10:51:37;98195.75;;;27.02;100.00
69848;BME280;57143;55.940;37.496;2023-07-31T10:54:11;98150.63;;;27.28;100.00
69848;BME280;57143;55.940;37.496;2023-07-31T10:56:39;98108.56;;;27.29;100.00
69848;BME280;57143;55.940;37.496;2023-07-31T10:59:06;98078.03;;;27.33;100.00
69848;BME280;57143;55.940;37.496;2023-07-31T11:01:53;98063.66;;;27.50;100.00
69848;BME280;57143;55.940;37.496;2023-07-31T11:04:26;98134.94;;;27.55;100.00
69848;BME280;57143;55.940;37.496;2023-07-31T11:06:57;98183.22;;;27.62;100.00
69848;BME280;57143;55.940;37.496;2023-07-31T11:09:27;98187.16;;;27.42;100.00
69848;BME280;57143;55.940;37.496;2023-07-31T11:11:56;98132.22;;;27.23;100.00
69848;BME280;57143;55.940;37.496;2023-07-31T11:14:23;98179.81;;;27.18;100.00
69848;BME280;57143;55.940;37.496;2023-07-31T11:16:50;98201.16;;;26.95;100.00
69848;BME280;57143;55.940;37.496;2023-07-31T11:19:21;98131.03;;;26.55;100.00
69848;BME280;57143;55.940;37.496;2023-07-31T11:21:51;98053.59;;;26.88;100.00
69848;BME280;57143;55.940;37.496;2023-07-31T11:24:19;98063.88;;;27.22;100.00
69848;BME280;57143;55.940;37.496;2023-07-31T11:26:50;98025.09;;;27.29;100.00
69848;BME280;57143;55.940;37.496;2023-07-31T11:29:19;97991.59;;;27.26;100.00
69848;BME280;57143;55.940;37.496;2023-07-31T11:31:48;97943.09;;;27.27;100.00
69848;BME280;57143;55.940;37.496;2023-07-31T11:34:15;97898.38;;;27.36;100.00
69848;BME280;57143;55.940;37.496;2023-07-31T11:36:54;97928.00;;;27.05;100.00
69848;BME280;57143;55.940;37.496;2023-07-31T11:39:21;97944.19;;;27.00;100.00
69848;BME280;57143;55.940;37.496;2023-07-31T11:41:49;97944.19;;;26.81;100.00
69848;BME280;57143;55.940;37.496;2023-07-31T11:44:16;97890.53;;;26.61;100.00
69848;BME280;57143;55.940;37.496;2023-07-31T11:46:43;97886.72;;;26.50;100.00
69848;BME280;57143;55.940;37.496;2023-07-31T11:49:11;97847.69;;;26.24;100.00
69848;BME280;57143;55.940;37.496;2023-07-31T11:51:38;97856.53;;;26.30;100.00
69848;BME280;57143;55.940;37.496;2023-07-31T11:54:07;97831.31;;;26.38;100.00
69848;BME280;57143;55.940;37.496;2023-07-31T11:56:35;97831.69;;;26.37;100.00
69848;BME280;57143;55.940;37.496;2023-07-31T11:59:02;97829.47;;;26.46;100.00
69848;BME280;57143;55.940;37.496;2023-07-31T12:01:31;97803.09;;;26.36;100.00
69848;BME280;57143;55.940;37.496;2023-07-31T12:03:59;97805.84;;;26.36;100.00
69848;BME280;57143;55.940;37.496;2023-07-31T12:06:33;97785.09;;;26.30;100.00
69848;BME280;57143;55.940;37.496;2023-07-31T12:09:02;97766.69;;;26.22;100.00
69848;BME280;57143;55.940;37.496;2023-07-31T12:11:31;97764.84;;;26.30;100.00
69848;BME280;57143;55.940;37.496;2023-07-31T12:13:58;97727.44;;;26.04;100.00
69848;BME280;57143;55.940;37.496;2023-07-31T12:16:26;97690.56;;;26.04;100.00
69848;BME280;57143;55.940;37.496;2023-07-31T12:18:54;97671.72;;;25.97;100.00
69848;BME280;57143;55.940;37.496;2023-07-31T12:21:22;97637.63;;;25.97;100.00
69848;BME280;57143;55.940;37.496;2023-07-31T12:23:51;97559.28;;;25.65;100.00
69848;BME280;57143;55.940;37.496;2023-07-31T12:26:19;97588.28;;;26.09;100.00
69848;BME280;57143;55.940;37.496;2023-07-31T12:28:50;97588.28;;;25.90;100.00
69848;BME280;57143;55.940;37.496;2023-07-31T12:31:20;97564.72;;;25.81;100.00
69848;BME280;57143;55.940;37.496;2023-07-31T12:33:50;97634.13;;;25.81;100.00
69848;BME280;57143;55.940;37.496;2023-07-31T12:36:20;97674.44;;;25.94;100.00
69848;BME280;57143;55.940;37.496;2023-07-31T12:38:48;97661.75;;;26.12;100.00
69848;BME280;57143;55.940;37.496;2023-07-31T12:41:16;97669.59;;;26.52;100.00
69848;BME280;57143;55.940;37.496;2023-07-31T12:43:44;97660.22;;;26.60;100.00
69848;BME280;57143;55.940;37.496;2023-07-31T12:46:13;97651.16;;;26.63;100.00